To NAV CANADA Home Page Login to a new session Search on AWWS site Feedback and Comments Disclaimer Vers la page française équivalente Tips FAQ What's new on the site To the Forecasts and Observations / NOTAM section To "File a Flight Plan" website Publications and other links Update of the User's profile FIC Telephone Numbers My Weather Data Folder Route Weather Data Regional Weather Data Local Weather Data To the Forecasts and Observations / NOTAM section
Request Generated 04/25/2014 at 01:06:07 UTC . Weather information available at that time is displayed.

METAR/TAF

YARMOUTH/NS    

METAR CYQI 250100Z 01016G23KT 12SM -RA OVC012 02/01 A2961 RMK SF8
SLP028=
SPECI CYQI 250017Z 36014G22KT 12SM OVC012 02/01 A2959 RMK SF8 PRESRR
SLP021=
METAR CYQI 250000Z 36017KT 12SM -RA FEW006 OVC015 02/01 A2957 RMK
SF1SC7 -RA INTMT SLP015=
SPECI CYQI 242350Z 36017G23KT 10SM SCT006 OVC015 02/01 A2957 RMK
SF4SC4 INTMT -RA SLP013=
METAR CYQI 242300Z 36016KT 8SM -RA OVC006 02/02 A2953 RMK SF8 PCPN
VRY LGT SLP001=

TAF AMD CYQI 250009Z 2500/2512 36017G27KT 6SM -RA OVC015 TEMPO
2500/2502 5SM -DZ BR OVC008
FM250200 36015G25KT 6SM -RASN BR OVC015 TEMPO 2502/2507 4SM -DZ
BR
FM250700 35012G22KT P6SM BKN020
RMK NXT FCST BY 250600Z=
Your time UTC time
Weather data provided by Environment Canada and NAV CANADA